Time;durP1;ratioP1;P1;durP2;ratioP2;P2;SDS_P1;SDS_P2;PMS_P1;PMS_P2;Temp;Humidity;BMP_temperature;BMP_pressure;BME280_temperature;BME280_humidity;BME280_pressure;Samples;Min_cycle;Max_cycle;Signal;HPM_P1;HPM_P2
2022/08/10 00:01:02;;;;;;;1.98;1.60;;;;;;;;;;5051896;27;97667;-74
2022/08/10 00:03:28;;;;;;;2.97;1.88;;;;;;;;;;5063423;27;95757;-75
2022/08/10 00:05:55;;;;;;;2.67;1.75;;;;;;;;;;5057438;27;97185;-75
2022/08/10 00:08:23;;;;;;;2.92;1.80;;;;;;;;;;5051358;27;97379;-75
2022/08/10 00:10:54;;;;;;;3.10;1.85;;;;;;;;;;5065214;27;95926;-75
2022/08/10 00:13:21;;;;;;;2.47;1.90;;;;;;;;;;5052237;27;96828;-75
2022/08/10 00:15:47;;;;;;;4.70;2.00;;;;;;;;;;5066409;27;97585;-75
2022/08/10 00:18:21;;;;;;;4.00;1.70;;;;;;;;;;5058141;27;95802;-75
2022/08/10 00:21:01;;;;;;;2.30;1.70;;;;;;;;;;5065018;27;97599;-75
2022/08/10 00:23:28;;;;;;;4.47;1.80;;;;;;;;;;5062170;27;95647;-76
2022/08/10 00:25:54;;;;;;;2.85;1.95;;;;;;;;;;5057514;27;97061;-75
2022/08/10 00:28:20;;;;;;;2.15;1.80;;;;;;;;;;5047516;27;97346;-75
2022/08/10 00:30:47;;;;;;;4.30;2.00;;;;;;;;;;5064348;27;95583;-75
2022/08/10 00:33:13;;;;;;;5.43;1.80;;;;;;;;;;5051688;27;95696;-75
2022/08/10 00:35:39;;;;;;;5.30;2.00;;;;;;;;;;5068707;27;97811;-75
2022/08/10 00:38:06;;;;;;;3.00;1.77;;;;;;;;;;5071294;27;95824;-75
2022/08/10 00:40:32;;;;;;;3.42;1.92;;;;;;;;;;5074110;27;96865;-75
2022/08/10 00:43:03;;;;;;;3.55;2.00;;;;;;;;;;5055199;27;95497;-75
2022/08/10 00:45:30;;;;;;;4.38;1.90;;;;;;;;;;5064407;27;97119;-76
2022/08/10 00:47:56;;;;;;;2.22;1.80;;;;;;;;;;5052438;27;97375;-75
2022/08/10 00:50:22;;;;;;;2.78;1.70;;;;;;;;;;5058778;27;96112;-76
2022/08/10 00:52:49;;;;;;;2.40;1.88;;;;;;;;;;5055561;27;97046;-76
2022/08/10 00:55:16;;;;;;;2.40;1.70;;;;;;;;;;5068391;27;97072;-75
2022/08/10 00:57:42;;;;;;;6.38;2.17;;;;;;;;;;5067070;27;95483;-75
2022/08/10 01:00:10;;;;;;;2.65;1.75;;;;;;;;;;5060645;27;96925;-76
2022/08/10 01:02:36;;;;;;;3.67;1.90;;;;;;;;;;5054215;27;95986;-76
2022/08/10 01:05:06;;;;;;;3.67;1.80;;;;;;;;;;5064308;27;97132;-76
2022/08/10 01:07:32;;;;;;;2.80;2.00;;;;;;;;;;5065158;27;97331;-76
2022/08/10 01:10:08;;;;;;;2.33;1.88;;;;;;;;;;5060553;27;95177;-75
2022/08/10 01:12:44;;;;;;;5.35;2.00;;;;;;;;;;5060469;27;97357;-76
2022/08/10 01:15:23;;;;;;;4.57;2.00;;;;;;;;;;5065653;27;97457;-76
2022/08/10 01:17:57;;;;;;;3.10;2.10;;;;;;;;;;5058682;27;95407;-75
2022/08/10 01:20:34;;;;;;;2.30;1.70;;;;;;;;;;5058368;27;96834;-76
2022/08/10 01:23:19;;;;;;;6.82;1.80;;;;;;;;;;5067222;27;97331;-76
2022/08/10 01:25:56;;;;;;;2.47;1.90;;;;;;;;;;5068147;27;96032;-75
2022/08/10 01:28:47;;;;;;;3.33;2.08;;;;;;;;;;5062268;27;97863;-75
2022/08/10 01:31:18;;;;;;;4.32;2.05;;;;;;;;;;5064463;27;95505;-76
2022/08/10 01:33:50;;;;;;;4.10;2.13;;;;;;;;;;5053985;27;97022;-75
2022/08/10 01:36:34;;;;;;;4.07;2.20;;;;;;;;;;5062707;27;97306;-75
2022/08/10 01:39:01;;;;;;;2.97;2.03;;;;;;;;;;5054537;27;95895;-75
2022/08/10 01:41:36;;;;;;;4.30;2.25;;;;;;;;;;5064490;27;96747;-76
2022/08/10 01:44:17;;;;;;;3.97;2.30;;;;;;;;;;5063313;27;98238;-76
2022/08/10 01:46:47;;;;;;;5.07;2.10;;;;;;;;;;5055195;27;95957;-76
2022/08/10 01:49:19;;;;;;;3.95;2.00;;;;;;;;;;5056474;27;96816;-76
2022/08/10 01:51:51;;;;;;;2.92;2.05;;;;;;;;;;5064066;27;95751;-76
2022/08/10 01:54:19;;;;;;;3.30;2.10;;;;;;;;;;5053067;27;96991;-75
2022/08/10 01:56:47;;;;;;;3.55;2.15;;;;;;;;;;5065411;27;97438;-76
2022/08/10 01:59:27;;;;;;;5.90;2.28;;;;;;;;;;5049492;27;96857;-75
2022/08/10 02:01:55;;;;;;;3.88;2.30;;;;;;;;;;5057623;27;95900;-75
2022/08/10 02:04:23;;;;;;;2.35;1.83;;;;;;;;;;5054268;27;97232;-75
2022/08/10 02:06:52;;;;;;;3.03;2.17;;;;;;;;;;5065917;27;96692;-76
2022/08/10 02:09:23;;;;;;;5.95;2.40;;;;;;;;;;5053475;27;97210;-76
2022/08/10 02:11:50;;;;;;;4.20;2.50;;;;;;;;;;5071691;27;97702;-76
2022/08/10 02:14:38;;;;;;;3.05;2.20;;;;;;;;;;5055988;27;96766;-75
2022/08/10 02:17:13;;;;;;;5.28;2.10;;;;;;;;;;5050454;27;97300;-76
2022/08/10 02:20:02;;;;;;;3.80;2.25;;;;;;;;;;5070901;27;95348;-76
2022/08/10 02:22:29;;;;;;;3.13;2.10;;;;;;;;;;5056418;27;96918;-75
2022/08/10 02:25:05;;;;;;;3.60;2.40;;;;;;;;;;5066214;27;97233;-75
2022/08/10 02:27:31;;;;;;;3.95;2.60;;;;;;;;;;5054045;27;96537;-76
2022/08/10 02:29:59;;;;;;;4.10;2.33;;;;;;;;;;5061371;27;96880;-76
2022/08/10 02:32:26;;;;;;;5.47;2.40;;;;;;;;;;5052154;27;97199;-76
2022/08/10 02:35:06;;;;;;;4.18;2.60;;;;;;;;;;5066703;27;96770;-76
2022/08/10 02:37:33;;;;;;;3.42;2.30;;;;;;;;;;5051027;27;97452;-76
2022/08/10 02:39:59;;;;;;;3.08;2.28;;;;;;;;;;5059527;27;95933;-76
2022/08/10 02:42:32;;;;;;;4.53;2.50;;;;;;;;;;5049593;27;97000;-76
2022/08/10 02:45:22;;;;;;;3.83;2.20;;;;;;;;;;5053169;27;98633;-76
2022/08/10 02:48:08;;;;;;;4.45;2.67;;;;;;;;;;5062796;27;95254;-76
2022/08/10 02:50:35;;;;;;;6.10;2.78;;;;;;;;;;5055498;27;96776;-76
2022/08/10 02:53:11;;;;;;;4.97;2.45;;;;;;;;;;5050406;27;97477;-76
2022/08/10 02:56:05;;;;;;;3.67;2.85;;;;;;;;;;5064340;27;95399;-75
2022/08/10 02:58:46;;;;;;;5.13;2.60;;;;;;;;;;5060850;27;97312;-76
2022/08/10 03:01:16;;;;;;;7.22;3.00;;;;;;;;;;5052048;27;95488;-76
2022/08/10 03:03:44;;;;;;;5.55;3.10;;;;;;;;;;5061646;27;97646;-75
2022/08/10 03:06:13;;;;;;;4.22;2.78;;;;;;;;;;5060833;27;97410;-75
2022/08/10 03:08:41;;;;;;;8.52;2.80;;;;;;;;;;5058964;27;96449;-75
2022/08/10 03:11:11;;;;;;;5.50;2.78;;;;;;;;;;5052981;27;96810;-76
2022/08/10 03:13:38;;;;;;;6.22;2.90;;;;;;;;;;5063287;27;97540;-76
2022/08/10 03:16:06;;;;;;;4.43;2.80;;;;;;;;;;5059351;27;95493;-75
2022/08/10 03:18:33;;;;;;;5.85;2.90;;;;;;;;;;5059318;27;96944;-76
2022/08/10 03:21:00;;;;;;;6.82;2.97;;;;;;;;;;5050926;27;95680;-75
2022/08/10 03:23:26;;;;;;;5.13;3.30;;;;;;;;;;5064767;27;97157;-75
2022/08/10 03:25:55;;;;;;;5.38;3.60;;;;;;;;;;5057775;27;96926;-76
2022/08/10 03:28:22;;;;;;;4.40;3.33;;;;;;;;;;5056312;27;96106;-75
2022/08/10 03:30:49;;;;;;;5.93;3.33;;;;;;;;;;5053571;27;97100;-76
2022/08/10 03:33:16;;;;;;;4.97;3.25;;;;;;;;;;5065592;27;97422;-75
2022/08/10 03:35:42;;;;;;;5.57;3.42;;;;;;;;;;5055646;27;95296;-76
2022/08/10 03:38:29;;;;;;;7.63;3.58;;;;;;;;;;5054445;27;98387;-76
2022/08/10 03:40:57;;;;;;;6.05;3.28;;;;;;;;;;5068445;27;100843;-76
2022/08/10 03:43:25;;;;;;;6.78;3.90;;;;;;;;;;5064167;27;95686;-76
2022/08/10 03:45:53;;;;;;;5.82;3.67;;;;;;;;;;5048780;27;97601;-76
2022/08/10 03:48:22;;;;;;;5.65;3.33;;;;;;;;;;5059776;27;95369;-75
2022/08/10 03:50:49;;;;;;;9.27;4.32;;;;;;;;;;5052032;27;96791;-76
2022/08/10 03:53:17;;;;;;;5.80;3.70;;;;;;;;;;5052049;27;97351;-75
2022/08/10 03:56:04;;;;;;;5.93;3.63;;;;;;;;;;5059353;27;95255;-76
2022/08/10 03:58:51;;;;;;;5.10;3.75;;;;;;;;;;5061677;27;98855;-76
2022/08/10 04:01:18;;;;;;;7.10;4.22;;;;;;;;;;5051832;27;97434;-75
2022/08/10 04:04:07;;;;;;;5.63;3.90;;;;;;;;;;5060342;27;95387;-76
2022/08/10 04:06:40;;;;;;;8.20;3.60;;;;;;;;;;5048127;27;97305;-76
2022/08/10 04:09:06;;;;;;;6.40;4.00;;;;;;;;;;5051779;27;96381;-75
2022/08/10 04:11:32;;;;;;;4.93;3.70;;;;;;;;;;5060563;27;96975;-76
2022/08/10 04:13:59;;;;;;;4.90;3.40;;;;;;;;;;5062995;27;97451;-76
2022/08/10 04:16:25;;;;;;;6.15;3.78;;;;;;;;;;5065154;27;95603;-75
2022/08/10 04:18:51;;;;;;;7.93;4.78;;;;;;;;;;5069530;27;97039;-76
2022/08/10 04:21:19;;;;;;;5.97;3.90;;;;;;;;;;5055079;27;97936;-75
2022/08/10 04:23:48;;;;;;;5.50;3.72;;;;;;;;;;5064931;27;95440;-75
2022/08/10 04:26:19;;;;;;;7.00;4.20;;;;;;;;;;5065455;27;95710;-75
2022/08/10 18:50:50;;;;;;;5.18;1.52;;;;;;;;;;5001513;27;1387850;-77
2022/08/10 18:53:33;;;;;;;10.60;2.92;;;;;;;;;;5024421;28;97325;-76
2022/08/10 18:56:19;;;;;;;6.97;1.90;;;;;;;;;;5021155;28;95701;-77
2022/08/10 18:58:46;;;;;;;3.63;1.80;;;;;;;;;;4997508;28;96499;-77
2022/08/10 19:01:19;;;;;;;8.55;2.05;;;;;;;;;;5018871;28;97411;-77
2022/08/10 19:03:45;;;;;;;14.10;1.88;;;;;;;;;;5009177;28;95728;-77
2022/08/10 19:06:40;;;;;;;3.38;1.50;;;;;;;;;;5015422;28;97014;-77
2022/08/10 19:09:26;;;;;;;5.70;1.70;;;;;;;;;;5021945;28;96991;-76
2022/08/10 19:12:29;;;;;;;3.67;1.60;;;;;;;;;;5014016;28;95336;-76
2022/08/10 19:15:15;;;;;;;5.72;2.05;;;;;;;;;;5017731;28;97794;-76
2022/08/10 19:17:58;;;;;;;4.97;1.60;;;;;;;;;;5010089;28;95321;-77
2022/08/10 19:20:30;;;;;;;7.10;1.60;;;;;;;;;;5011400;28;96815;-76
2022/08/10 19:23:02;;;;;;;5.88;1.70;;;;;;;;;;4993776;28;97726;-77
2022/08/10 19:25:31;;;;;;;6.57;1.70;;;;;;;;;;5016653;28;97067;-76
2022/08/10 19:28:26;;;;;;;4.57;1.83;;;;;;;;;;5013437;28;98691;-77
2022/08/10 19:31:02;;;;;;;12.40;1.70;;;;;;;;;;5011744;28;97143;-77
2022/08/10 19:33:32;;;;;;;4.38;1.67;;;;;;;;;;5014926;28;95847;-78
2022/08/10 19:36:11;;;;;;;6.13;1.50;;;;;;;;;;5017560;28;96772;-76
2022/08/10 19:38:43;;;;;;;8.80;1.83;;;;;;;;;;5003605;28;95468;-75
2022/08/10 19:41:21;;;;;;;8.20;1.52;;;;;;;;;;5011514;28;100117;-75
2022/08/10 19:44:16;;;;;;;5.20;1.77;;;;;;;;;;5012959;28;97304;-76
2022/08/10 19:46:46;;;;;;;3.30;1.63;;;;;;;;;;5009152;28;95390;-76
2022/08/10 19:49:15;;;;;;;5.47;1.70;;;;;;;;;;5015563;28;96794;-76
2022/08/10 19:51:47;;;;;;;7.43;1.80;;;;;;;;;;5005659;28;97667;-76
2022/08/10 19:54:23;;;;;;;4.32;1.65;;;;;;;;;;5007226;28;96142;-76
2022/08/10 19:56:56;;;;;;;4.97;1.63;;;;;;;;;;5014771;28;96856;-76
2022/08/10 19:59:32;;;;;;;4.45;1.75;;;;;;;;;;5022889;28;97640;-76
2022/08/10 20:02:22;;;;;;;4.25;1.40;;;;;;;;;;4991282;28;98197;-76
2022/08/10 20:05:07;;;;;;;2.30;1.50;;;;;;;;;;4999486;28;97391;-76
2022/08/10 20:07:36;;;;;;;4.38;2.28;;;;;;;;;;4996808;28;95358;-76
2022/08/10 20:10:10;;;;;;;6.30;1.80;;;;;;;;;;4996362;28;96756;-77
2022/08/10 20:12:42;;;;;;;3.22;1.80;;;;;;;;;;4993299;28;97459;-76
2022/08/10 20:15:10;;;;;;;5.50;1.83;;;;;;;;;;4998557;28;95453;-76
2022/08/10 20:17:45;;;;;;;3.75;1.42;;;;;;;;;;4991719;28;96757;-76
2022/08/10 20:20:23;;;;;;;2.83;1.60;;;;;;;;;;4990428;28;97375;-77
2022/08/10 20:23:15;;;;;;;5.43;1.80;;;;;;;;;;4980850;28;95853;-77
2022/08/10 20:25:55;;;;;;;7.05;1.80;;;;;;;;;;5003313;28;96361;-77
2022/08/10 20:28:38;;;;;;;6.63;1.70;;;;;;;;;;4994479;28;95387;-77
2022/08/10 20:31:08;;;;;;;7.70;1.88;;;;;;;;;;4994748;28;97156;-77
2022/08/10 20:33:50;;;;;;;6.82;1.77;;;;;;;;;;4997400;28;97616;-77
2022/08/10 20:36:36;;;;;;;8.95;1.98;;;;;;;;;;4990638;28;95943;-77
2022/08/10 20:39:08;;;;;;;7.75;2.08;;;;;;;;;;4997209;28;96861;-77
2022/08/10 20:41:41;;;;;;;4.32;1.63;;;;;;;;;;4992863;28;97566;-77
2022/08/10 20:44:19;;;;;;;3.67;2.00;;;;;;;;;;5010922;28;95874;-77
2022/08/10 20:46:54;;;;;;;3.72;1.80;;;;;;;;;;5010287;28;96818;-76
2022/08/10 20:49:37;;;;;;;4.82;1.60;;;;;;;;;;4994297;28;95448;-77
2022/08/10 20:52:04;;;;;;;4.95;1.70;;;;;;;;;;5011015;28;97124;-77
2022/08/10 20:54:32;;;;;;;4.30;1.80;;;;;;;;;;5010786;28;97800;-77
2022/08/10 20:57:01;;;;;;;6.47;1.90;;;;;;;;;;5009424;28;96125;-77
2022/08/10 20:59:47;;;;;;;9.25;1.90;;;;;;;;;;4990046;28;96930;-77
2022/08/10 21:02:36;;;;;;;8.68;1.83;;;;;;;;;;5010248;28;97645;-77
2022/08/10 21:05:11;;;;;;;5.47;1.75;;;;;;;;;;4990399;28;95467;-77
2022/08/10 21:07:48;;;;;;;5.47;1.70;;;;;;;;;;4991789;28;97075;-77
2022/08/10 21:10:36;;;;;;;8.63;1.85;;;;;;;;;;5006258;28;95972;-77
2022/08/10 21:13:19;;;;;;;5.97;1.85;;;;;;;;;;5009504;28;97051;-76
2022/08/10 21:16:01;;;;;;;5.28;2.20;;;;;;;;;;5010430;28;96340;-77
2022/08/10 21:18:51;;;;;;;3.15;1.60;;;;;;;;;;4990284;28;95427;-77
2022/08/10 21:21:24;;;;;;;12.98;1.90;;;;;;;;;;4990142;28;97221;-76
2022/08/10 21:24:14;;;;;;;3.92;1.80;;;;;;;;;;4990701;28;99364;-77
2022/08/10 22:52:36;;;;;;;15.65;2.17;;;;;;;;;;5000297;28;97033;-77
2022/08/10 23:01:05;;;;;;;10.73;2.28;;;;;;;;;;5008835;28;96646;-76
2022/08/10 23:03:36;;;;;;;7.57;2.17;;;;;;;;;;4985256;28;97666;-77
2022/08/10 23:06:12;;;;;;;5.25;2.15;;;;;;;;;;5006141;28;95979;-76
2022/08/10 23:08:49;;;;;;;5.40;2.30;;;;;;;;;;4993054;28;96062;-76
2022/08/10 23:11:20;;;;;;;8.30;2.20;;;;;;;;;;4987888;28;97392;-77
2022/08/10 23:13:49;;;;;;;6.57;2.38;;;;;;;;;;5009760;28;95398;-76
2022/08/10 23:19:49;;;;;;;12.05;2.50;;;;;;;;;;4997247;28;95498;-76
2022/08/10 23:22:18;;;;;;;7.38;2.92;;;;;;;;;;4926000;28;96910;-76
2022/08/10 23:24:51;;;;;;;11.68;2.40;;;;;;;;;;4924987;28;97553;-76
2022/08/10 23:27:18;;;;;;;8.88;3.00;;;;;;;;;;4969483;28;95691;-76
2022/08/10 23:30:10;;;;;;;8.93;3.00;;;;;;;;;;5004147;28;98847;-76
2022/08/10 23:32:48;;;;;;;5.55;2.33;;;;;;;;;;4990492;28;97358;-76
2022/08/10 23:35:16;;;;;;;10.52;3.33;;;;;;;;;;5004158;28;95887;-76
2022/08/10 23:38:03;;;;;;;5.72;2.75;;;;;;;;;;5005930;28;99370;-76
2022/08/10 23:40:31;;;;;;;7.13;2.70;;;;;;;;;;5010105;28;95922;-76
2022/08/10 23:42:58;;;;;;;7.53;2.53;;;;;;;;;;4986814;28;96813;-77
2022/08/10 23:45:26;;;;;;;8.32;2.67;;;;;;;;;;5008681;28;97615;-76
2022/08/10 23:47:56;;;;;;;9.20;2.70;;;;;;;;;;5004135;28;95491;-76
2022/08/10 23:50:23;;;;;;;6.10;2.50;;;;;;;;;;5004708;28;96642;-76
2022/08/10 23:52:51;;;;;;;4.13;2.55;;;;;;;;;;5010449;28;97408;-76
2022/08/10 23:55:25;;;;;;;6.95;2.45;;;;;;;;;;5011116;28;95972;-76
2022/08/10 23:58:03;;;;;;;5.15;2.70;;;;;;;;;;5012231;28;96821;-76
